createdAt,value
2019-03-20T00:01:50.976Z,3.97
2019-03-20T00:04:30.548Z,3.96
2019-03-20T00:07:02.232Z,3.96
2019-03-20T00:09:37.329Z,3.93
2019-03-20T00:12:09.000Z,3.95
2019-03-20T00:14:45.116Z,3.88
2019-03-20T00:17:16.886Z,3.78
2019-03-20T00:19:58.731Z,3.71
2019-03-20T00:22:30.501Z,3.70
2019-03-20T00:25:09.638Z,3.74
2019-03-20T00:27:41.281Z,3.77
2019-03-20T00:30:21.109Z,3.82
2019-03-20T00:32:52.839Z,3.88
2019-03-20T00:35:27.668Z,3.82
2019-03-20T00:37:59.335Z,3.79
2019-03-20T00:40:38.921Z,3.78
2019-03-20T00:43:10.628Z,3.77
2019-03-20T00:45:47.046Z,3.74
2019-03-20T00:48:19.237Z,3.84
2019-03-20T00:50:58.165Z,3.82
2019-03-20T00:53:29.706Z,3.81
2019-03-20T00:56:19.196Z,3.77
2019-03-20T00:58:50.890Z,3.81
2019-03-20T01:01:22.568Z,3.81
2019-03-20T01:03:54.298Z,3.86
2019-03-20T01:06:33.263Z,3.86
2019-03-20T01:09:05.313Z,3.92
2019-03-20T01:11:43.954Z,4.02
2019-03-20T01:14:15.869Z,3.98
2019-03-20T01:16:57.805Z,4.01
2019-03-20T01:19:29.522Z,4.04
2019-03-20T01:22:04.821Z,4.04
2019-03-20T01:24:36.626Z,3.99
2019-03-20T01:27:16.084Z,3.98
2019-03-20T01:29:47.676Z,3.95
2019-03-20T01:32:28.698Z,3.98
2019-03-20T01:35:00.485Z,3.97
2019-03-20T01:37:32.402Z,3.96
2019-03-20T01:40:04.067Z,3.99
2019-03-20T01:42:53.438Z,4.00
2019-03-20T01:45:25.213Z,4.17
2019-03-20T01:47:57.062Z,4.18
2019-03-20T01:50:29.040Z,4.22
2019-03-20T01:53:06.999Z,4.44
2019-03-20T01:55:38.866Z,4.58
2019-03-20T01:58:19.874Z,4.65
2019-03-20T02:00:51.505Z,4.75
2019-03-20T02:03:30.621Z,4.85
2019-03-20T02:06:02.378Z,4.91
2019-03-20T02:08:36.999Z,5.03
2019-03-20T02:11:08.571Z,5.22
2019-03-20T02:13:44.589Z,5.21
2019-03-20T02:16:16.525Z,5.23
2019-03-20T02:18:52.415Z,5.22
2019-03-20T02:21:24.484Z,5.29
2019-03-20T02:23:58.999Z,5.38
2019-03-20T02:26:31.068Z,5.36
2019-03-20T02:29:02.972Z,5.41
2019-03-20T02:31:34.800Z,5.40
2019-03-20T02:34:06.581Z,5.43
2019-03-20T02:36:38.231Z,5.34
2019-03-20T02:39:10.491Z,5.30
2019-03-20T02:41:42.190Z,5.21
2019-03-20T02:44:13.921Z,5.17
2019-03-20T02:46:45.853Z,5.28
2019-03-20T02:49:17.689Z,5.21
2019-03-20T02:51:49.361Z,5.16
2019-03-20T02:54:20.875Z,5.29
2019-03-20T02:56:52.710Z,5.33
2019-03-20T02:59:24.897Z,5.31
2019-03-20T03:01:56.617Z,5.40
2019-03-20T03:04:29.308Z,5.46
2019-03-20T03:07:00.980Z,5.56
2019-03-20T03:09:33.010Z,5.63
2019-03-20T03:12:04.829Z,5.75
2019-03-20T03:14:36.589Z,5.82
2019-03-20T03:17:08.297Z,5.93
2019-03-20T03:19:39.992Z,5.89
2019-03-20T03:22:11.833Z,5.87
2019-03-20T03:24:43.896Z,5.99
2019-03-20T03:27:15.628Z,6.04
2019-03-20T03:29:47.580Z,5.99
2019-03-20T03:32:19.141Z,5.92
2019-03-20T03:34:50.891Z,5.91
2019-03-20T03:37:22.493Z,5.97
2019-03-20T03:39:54.598Z,5.98
2019-03-20T03:42:29.742Z,6.00
2019-03-20T03:45:01.510Z,6.00
2019-03-20T03:47:33.200Z,5.93
2019-03-20T03:50:05.106Z,5.86
2019-03-20T03:52:36.769Z,5.96
2019-03-20T03:55:08.589Z,5.97
2019-03-20T03:57:40.601Z,5.99
2019-03-20T04:00:14.212Z,5.97
2019-03-20T04:02:45.949Z,5.91
2019-03-20T04:05:17.686Z,5.95
2019-03-20T04:07:49.464Z,5.97
2019-03-20T04:10:21.357Z,5.91
2019-03-20T04:12:53.103Z,5.93
2019-03-20T04:15:25.031Z,5.92
2019-03-20T04:17:59.504Z,5.89
2019-03-20T04:20:31.213Z,5.89
2019-03-20T04:23:09.110Z,5.87
2019-03-20T04:25:40.675Z,5.93
2019-03-20T04:28:12.507Z,5.97
2019-03-20T04:30:44.262Z,6.08
2019-03-20T04:33:23.010Z,6.07
2019-03-20T04:35:55.081Z,6.08
2019-03-20T04:38:33.140Z,6.12
2019-03-20T04:41:05.036Z,6.18
2019-03-20T04:43:45.863Z,6.12
2019-03-20T04:46:17.964Z,6.16
2019-03-20T04:48:52.455Z,6.13
2019-03-20T04:51:24.168Z,6.07
2019-03-20T04:54:06.249Z,6.08
2019-03-20T04:56:33.327Z,5.99
2019-03-20T04:59:24.071Z,5.98
2019-03-20T05:02:01.731Z,6.01
2019-03-20T05:04:33.414Z,6.06
2019-03-20T05:07:15.474Z,5.98
2019-03-20T05:09:46.996Z,5.92
2019-03-20T05:12:22.860Z,5.87
2019-03-20T05:14:54.511Z,5.82
2019-03-20T05:17:33.843Z,5.79
2019-03-20T05:20:05.889Z,5.87
2019-03-20T05:22:45.635Z,5.78
2019-03-20T05:25:17.497Z,5.89
2019-03-20T05:27:56.909Z,5.85
2019-03-20T05:30:28.663Z,5.72
2019-03-20T05:33:03.491Z,5.69
2019-03-20T05:35:35.398Z,5.81
2019-03-20T05:38:07.271Z,5.97
2019-03-20T05:40:39.069Z,6.10
2019-03-20T05:43:10.791Z,6.14
2019-03-20T05:45:42.550Z,6.17
2019-03-20T05:48:14.222Z,6.29
2019-03-20T05:50:45.846Z,6.46
2019-03-20T05:53:23.702Z,6.50
2019-03-20T05:55:55.589Z,6.66
2019-03-20T05:58:27.446Z,6.82
2019-03-20T06:00:59.071Z,6.86
2019-03-20T06:03:30.802Z,6.98
2019-03-20T06:06:02.545Z,7.51
2019-03-20T06:08:34.480Z,8.46
2019-03-20T06:11:06.271Z,9.32
2019-03-20T06:13:38.128Z,9.51
2019-03-20T06:16:10.092Z,10.00
2019-03-20T06:18:41.850Z,10.21
2019-03-20T06:21:15.175Z,10.41
2019-03-20T06:23:46.940Z,10.92
2019-03-20T06:26:20.031Z,11.09
2019-03-20T06:28:51.835Z,11.53
2019-03-20T06:31:23.525Z,12.15
2019-03-20T06:33:55.277Z,12.20
2019-03-20T06:36:28.461Z,11.43
2019-03-20T06:39:00.404Z,12.07
2019-03-20T06:41:33.678Z,13.34
2019-03-20T06:44:05.449Z,13.95
2019-03-20T06:46:37.973Z,14.15
2019-03-20T06:49:09.636Z,14.95
2019-03-20T06:51:42.215Z,14.78
2019-03-20T06:54:14.407Z,15.63
2019-03-20T06:56:46.272Z,15.63
2019-03-20T07:00:35.922Z,15.73
2019-03-20T07:03:12.381Z,15.88
2019-03-20T07:06:35.758Z,15.45
2019-03-20T07:09:41.191Z,15.81
2019-03-20T07:12:14.451Z,16.32
2019-03-20T07:14:46.122Z,16.83
2019-03-20T07:17:18.030Z,17.02
2019-03-20T07:19:49.825Z,17.13
2019-03-20T07:22:22.015Z,16.99
2019-03-20T07:24:55.215Z,17.74
2019-03-20T07:27:26.900Z,17.17
2019-03-20T07:30:01.145Z,16.41
2019-03-20T07:32:32.855Z,16.82
2019-03-20T07:35:04.829Z,18.04
2019-03-20T07:37:36.458Z,17.39
2019-03-20T07:40:09.344Z,17.27
2019-03-20T07:42:41.012Z,18.11
2019-03-20T07:45:13.020Z,17.18
2019-03-20T07:47:44.661Z,17.60
2019-03-20T07:50:16.578Z,18.05
2019-03-20T07:52:48.388Z,18.75
2019-03-20T07:55:20.299Z,19.51
2019-03-20T07:57:55.087Z,19.65
2019-03-20T08:00:27.143Z,19.56
2019-03-20T08:03:05.331Z,18.42
2019-03-20T08:05:36.810Z,18.07
2019-03-20T08:08:12.771Z,18.99
2019-03-20T08:10:44.338Z,18.83
2019-03-20T08:13:25.396Z,19.66
2019-03-20T08:15:57.199Z,19.60
2019-03-20T08:18:35.570Z,18.77
2019-03-20T08:21:07.333Z,17.99
2019-03-20T08:23:42.158Z,16.62
2019-03-20T08:26:13.795Z,16.15
2019-03-20T08:28:52.175Z,15.73
2019-03-20T08:31:25.019Z,15.42
2019-03-20T08:34:12.078Z,14.14
2019-03-20T08:36:45.012Z,14.05
2019-03-20T08:39:20.035Z,13.77
2019-03-20T08:41:52.338Z,13.23
2019-03-20T08:44:27.687Z,12.73
2019-03-20T08:46:59.631Z,12.46
2019-03-20T08:49:34.730Z,12.46
2019-03-20T08:52:07.612Z,12.20
2019-03-20T08:54:42.423Z,12.07
2019-03-20T08:57:18.833Z,11.82
2019-03-20T08:59:58.106Z,12.04
2019-03-20T09:02:30.452Z,12.70
2019-03-20T09:05:11.610Z,13.49
2019-03-20T09:07:47.374Z,13.85
2019-03-20T09:10:21.197Z,13.80
2019-03-20T09:12:53.727Z,13.75
2019-03-20T09:15:29.900Z,13.39
2019-03-20T09:18:01.724Z,13.49
2019-03-20T09:20:35.034Z,13.91
2019-03-20T09:23:07.398Z,14.59
2019-03-20T09:25:43.852Z,13.86
2019-03-20T09:28:15.979Z,14.41
2019-03-20T09:30:51.129Z,15.15
2019-03-20T09:33:22.961Z,15.87
2019-03-20T09:35:59.604Z,15.52
2019-03-20T09:38:42.717Z,15.92
2019-03-20T09:41:17.767Z,17.55
2019-03-20T09:43:50.067Z,19.54
2019-03-20T09:46:26.110Z,20.21
2019-03-20T09:48:58.686Z,18.70
2019-03-20T09:51:42.968Z,18.45
2019-03-20T09:54:14.715Z,19.04
2019-03-20T09:56:49.551Z,19.89
2019-03-20T09:59:22.389Z,19.29
2019-03-20T10:02:02.863Z,19.20
2019-03-20T10:04:35.444Z,19.51
2019-03-20T10:07:07.644Z,20.15
2019-03-20T10:09:40.209Z,20.21
2019-03-20T10:12:21.706Z,20.64
2019-03-20T10:14:54.195Z,20.19
2019-03-20T10:17:32.039Z,20.77
2019-03-20T10:20:03.705Z,20.56
2019-03-20T10:22:41.836Z,21.09
2019-03-20T10:25:17.156Z,20.67
2019-03-20T10:27:49.140Z,21.89
2019-03-20T10:30:25.360Z,21.65
2019-03-20T10:32:57.644Z,20.62
2019-03-20T10:35:29.982Z,20.69
2019-03-20T10:38:12.820Z,19.63
2019-03-20T10:40:45.292Z,20.53
2019-03-20T10:43:21.550Z,20.72
2019-03-20T10:45:53.758Z,20.84
2019-03-20T10:48:34.567Z,20.63
2019-03-20T10:51:06.485Z,20.73
2019-03-20T10:53:41.093Z,21.08
2019-03-20T10:56:13.849Z,21.71
2019-03-20T10:58:48.731Z,21.96
2019-03-20T11:01:20.717Z,20.74
2019-03-20T11:03:56.970Z,20.34
2019-03-20T11:06:30.452Z,21.22
2019-03-20T11:09:19.521Z,21.28
2019-03-20T11:11:51.515Z,20.78
2019-03-20T11:14:23.330Z,21.04
2019-03-20T11:16:55.438Z,21.27
2019-03-20T11:19:33.333Z,21.73
2019-03-20T11:22:05.179Z,20.20
2019-03-20T11:24:44.392Z,20.89
2019-03-20T11:27:16.438Z,21.31
2019-03-20T11:29:51.321Z,20.89
2019-03-20T11:32:24.673Z,21.13
2019-03-20T11:35:08.741Z,19.89
2019-03-20T11:37:40.418Z,19.90
2019-03-20T11:40:16.622Z,20.02
2019-03-20T11:42:50.041Z,21.20
2019-03-20T11:45:24.162Z,20.66
2019-03-20T11:47:56.219Z,20.71
2019-03-20T11:50:39.503Z,20.92
2019-03-20T11:53:15.976Z,21.16
2019-03-20T11:55:47.907Z,20.49
2019-03-20T11:58:22.693Z,20.81
2019-03-20T12:01:13.721Z,21.47
2019-03-20T12:03:45.333Z,20.54
2019-03-20T12:06:17.798Z,21.01
2019-03-20T12:08:49.570Z,20.90
2019-03-20T12:11:21.828Z,21.34
2019-03-20T12:13:55.079Z,21.31
2019-03-20T12:16:27.302Z,20.72
2019-03-20T12:18:59.428Z,20.17
2019-03-20T12:21:41.170Z,20.07
2019-03-20T12:24:13.576Z,19.82
2019-03-20T12:26:46.657Z,20.38
2019-03-20T12:29:18.859Z,19.91
2019-03-20T12:31:55.351Z,19.94
2019-03-20T12:34:28.079Z,19.52
2019-03-20T12:37:05.119Z,20.55
2019-03-20T12:39:38.275Z,20.26
2019-03-20T12:42:17.221Z,19.44
2019-03-20T12:44:49.209Z,19.36
2019-03-20T12:47:27.195Z,19.61
2019-03-20T12:50:00.353Z,19.44
2019-03-20T12:52:45.053Z,19.51
2019-03-20T12:55:17.666Z,19.99
2019-03-20T12:57:56.666Z,20.20
2019-03-20T13:00:29.000Z,20.40
2019-03-20T13:03:04.257Z,20.52
2019-03-20T13:05:37.056Z,20.95
2019-03-20T13:08:16.892Z,20.17
2019-03-20T13:10:49.397Z,20.71
2019-03-20T13:13:21.749Z,20.46
2019-03-20T13:15:53.549Z,19.69
2019-03-20T13:18:29.537Z,20.15
2019-03-20T13:21:02.320Z,19.83
2019-03-20T13:23:43.670Z,19.74
2019-03-20T13:26:15.655Z,19.25
2019-03-20T13:28:51.737Z,19.00
2019-03-20T13:31:26.056Z,19.10
2019-03-20T13:34:06.759Z,19.23
2019-03-20T13:36:39.424Z,19.28
2019-03-20T13:39:14.279Z,19.29
2019-03-20T13:41:46.330Z,18.88
2019-03-20T13:44:21.668Z,18.69
2019-03-20T13:46:53.563Z,18.91
2019-03-20T13:49:31.287Z,18.74
2019-03-20T13:52:03.239Z,18.41
2019-03-20T13:54:44.547Z,18.32
2019-03-20T13:57:16.662Z,18.44
2019-03-20T13:59:57.821Z,19.09
2019-03-20T14:02:30.123Z,19.04
2019-03-20T14:05:02.108Z,18.61
2019-03-20T14:07:34.535Z,18.77
2019-03-20T14:10:10.692Z,18.45
2019-03-20T14:12:42.756Z,18.42
2019-03-20T14:15:15.358Z,18.13
2019-03-20T14:17:47.647Z,18.47
2019-03-20T14:20:27.035Z,17.89
2019-03-20T14:22:56.675Z,17.63
2019-03-20T14:25:30.257Z,17.54
2019-03-20T14:28:03.152Z,17.28
2019-03-20T14:30:35.600Z,17.24
2019-03-20T14:33:09.397Z,17.74
2019-03-20T14:35:41.681Z,17.61
2019-03-20T14:38:15.285Z,17.42
2019-03-20T14:40:47.690Z,17.65
2019-03-20T14:43:20.043Z,17.93
2019-03-20T14:45:53.441Z,17.03
2019-03-20T14:48:27.204Z,17.21
2019-03-20T14:50:59.416Z,17.15
2019-03-20T14:53:31.914Z,16.95
2019-03-20T14:56:05.143Z,16.94
2019-03-20T14:58:38.360Z,16.77
2019-03-20T15:01:11.530Z,16.55
2019-03-20T15:03:44.036Z,16.55
2019-03-20T15:06:16.763Z,16.32
2019-03-20T15:08:49.332Z,16.20
2019-03-20T15:11:21.688Z,16.16
2019-03-20T15:13:53.854Z,16.05
2019-03-20T15:16:26.472Z,15.84
2019-03-20T15:18:58.934Z,15.59
2019-03-20T15:21:43.311Z,15.51
2019-03-20T15:24:15.479Z,15.86
2019-03-20T15:26:47.731Z,15.80
2019-03-20T15:29:19.761Z,15.92
2019-03-20T15:31:59.272Z,15.98
2019-03-20T15:34:31.918Z,15.57
2019-03-20T15:37:13.419Z,15.51
2019-03-20T15:39:45.600Z,15.80
2019-03-20T15:42:23.506Z,15.74
2019-03-20T15:44:55.647Z,15.29
2019-03-20T15:47:34.493Z,15.01
2019-03-20T15:50:09.322Z,14.86
2019-03-20T15:52:44.101Z,14.78
2019-03-20T15:55:28.847Z,14.69
2019-03-20T15:58:01.160Z,14.60
2019-03-20T16:00:34.739Z,14.61
2019-03-20T16:03:12.052Z,14.49
2019-03-20T16:05:43.835Z,14.60
2019-03-20T16:08:16.274Z,14.47
2019-03-20T16:10:48.388Z,14.61
2019-03-20T16:13:25.420Z,14.25
2019-03-20T16:15:58.041Z,14.42
2019-03-20T16:18:30.790Z,14.10
2019-03-20T16:21:03.605Z,13.98
2019-03-20T16:24:04.266Z,13.90
2019-03-20T16:26:38.944Z,13.64
2019-03-20T16:29:11.806Z,13.51
2019-03-20T16:31:44.504Z,13.40
2019-03-20T16:34:17.685Z,13.26
2019-03-20T16:36:57.438Z,13.20
2019-03-20T16:39:29.904Z,13.13
2019-03-20T16:42:03.216Z,12.95
2019-03-20T16:44:35.584Z,12.77
2019-03-20T16:47:08.211Z,12.62
2019-03-20T16:49:40.559Z,12.47
2019-03-20T16:52:12.774Z,12.39
2019-03-20T16:54:45.603Z,12.19
2019-03-20T16:57:19.347Z,12.01
2019-03-20T16:59:51.507Z,11.70
2019-03-20T17:02:25.747Z,11.66
2019-03-20T17:05:06.715Z,11.49
2019-03-20T17:07:39.007Z,11.32
2019-03-20T17:10:24.133Z,11.15
2019-03-20T17:12:56.246Z,11.06
2019-03-20T17:15:29.329Z,10.84
2019-03-20T17:18:01.331Z,10.67
2019-03-20T17:20:37.829Z,10.51
2019-03-20T17:23:10.153Z,10.41
2019-03-20T17:25:45.795Z,10.35
2019-03-20T17:28:18.237Z,10.23
2019-03-20T17:31:00.250Z,10.13
2019-03-20T17:33:32.350Z,10.03
2019-03-20T17:36:10.511Z,9.98
2019-03-20T17:38:42.377Z,9.88
2019-03-20T17:41:17.603Z,9.81
2019-03-20T17:43:50.088Z,9.67
2019-03-20T17:46:32.309Z,9.60
2019-03-20T17:49:04.577Z,9.48
2019-03-20T17:51:40.312Z,9.34
2019-03-20T17:54:12.426Z,9.25
2019-03-20T17:56:51.026Z,9.20
2019-03-20T17:59:25.108Z,9.10
2019-03-20T18:01:57.097Z,9.03
2019-03-20T18:04:29.124Z,9.03
2019-03-20T18:07:07.754Z,8.93
2019-03-20T18:09:40.574Z,8.79
2019-03-20T18:12:16.913Z,8.72
2019-03-20T18:14:50.103Z,8.59
2019-03-20T18:17:29.380Z,8.56
2019-03-20T18:20:04.181Z,8.50
2019-03-20T18:22:40.207Z,8.42
2019-03-20T18:25:16.697Z,8.36
2019-03-20T18:27:49.609Z,8.28
2019-03-20T18:30:26.046Z,8.20
2019-03-20T18:32:59.055Z,8.10
2019-03-20T18:35:31.865Z,7.97
2019-03-20T18:38:04.608Z,7.91
2019-03-20T18:40:41.458Z,7.91
2019-03-20T18:43:15.529Z,7.83
2019-03-20T18:45:52.254Z,7.66
2019-03-20T18:48:24.560Z,7.62
2019-03-20T18:50:57.587Z,7.59
2019-03-20T18:53:29.744Z,7.56
2019-03-20T18:56:03.110Z,7.45
2019-03-20T18:58:35.850Z,7.38
2019-03-20T19:01:10.099Z,7.28
2019-03-20T19:03:45.940Z,7.22
2019-03-20T19:06:24.096Z,7.23
2019-03-20T19:08:56.732Z,7.15
2019-03-20T19:11:29.831Z,7.06
2019-03-20T19:14:07.664Z,6.98
2019-03-20T19:20:32.708Z,6.83
2019-03-20T19:23:05.164Z,6.81
2019-03-20T19:25:38.640Z,6.78
2019-03-20T19:28:11.173Z,6.75
2019-03-20T19:30:43.983Z,6.81
2019-03-20T19:33:16.142Z,6.75
2019-03-20T19:35:49.057Z,6.75
2019-03-20T19:38:22.120Z,6.64
2019-03-20T19:40:55.734Z,6.78
2019-03-20T19:43:29.100Z,6.72
2019-03-20T19:46:01.522Z,6.63
2019-03-20T19:48:36.447Z,6.54
2019-03-20T19:51:10.566Z,6.42
2019-03-20T19:53:43.867Z,6.37
2019-03-20T19:56:17.054Z,6.32
2019-03-20T19:58:50.634Z,6.30
2019-03-20T20:01:23.836Z,6.32
2019-03-20T20:03:56.413Z,6.29
2019-03-20T20:06:30.120Z,6.18
2019-03-20T20:09:02.586Z,6.18
2019-03-20T20:11:37.337Z,6.15
2019-03-20T20:14:09.749Z,6.10
2019-03-20T20:16:43.782Z,6.03
2019-03-20T20:19:18.136Z,6.06
2019-03-20T20:21:57.568Z,5.99
2019-03-20T20:24:30.792Z,5.93
2019-03-20T20:27:07.311Z,5.88
2019-03-20T20:29:42.932Z,5.87
2019-03-20T20:32:15.587Z,5.86
2019-03-20T20:34:48.506Z,5.80
2019-03-20T20:37:20.717Z,5.85
2019-03-20T20:39:53.581Z,5.78
2019-03-20T20:42:26.536Z,5.84
2019-03-20T20:45:00.828Z,5.83
2019-03-20T20:47:33.384Z,5.85
2019-03-20T20:50:07.641Z,5.83
2019-03-20T20:52:41.542Z,5.79
2019-03-20T20:55:19.912Z,5.78
2019-03-20T20:57:52.599Z,5.79
2019-03-20T21:00:25.218Z,5.70
2019-03-20T21:02:58.448Z,5.65
2019-03-20T21:06:01.482Z,5.58
2019-03-20T21:08:34.574Z,5.57
2019-03-20T21:11:08.402Z,5.51
2019-03-20T21:13:40.924Z,5.55
2019-03-20T21:16:14.215Z,5.50
2019-03-20T21:19:40.050Z,5.45
2019-03-20T21:23:28.585Z,5.43
2019-03-20T21:26:03.414Z,5.60
2019-03-20T21:29:39.925Z,5.57
2019-03-20T21:32:42.987Z,5.61
2019-03-20T21:36:19.242Z,5.62
2019-03-20T21:38:51.942Z,5.55
2019-03-20T21:42:18.252Z,5.44
2019-03-20T21:45:44.611Z,5.46
2019-03-20T21:48:18.838Z,5.53
2019-03-20T21:51:27.032Z,5.51
2019-03-20T21:54:59.126Z,5.50
2019-03-20T21:58:18.276Z,5.36
2019-03-20T22:01:38.287Z,5.37
2019-03-20T22:04:11.176Z,5.32
2019-03-20T22:07:10.806Z,5.28
2019-03-20T22:10:40.677Z,5.25
2019-03-20T22:13:49.763Z,5.19
2019-03-20T22:17:31.083Z,5.09
2019-03-20T22:20:59.056Z,5.11
2019-03-20T22:24:29.949Z,5.16
2019-03-20T22:28:06.537Z,5.12
2019-03-20T22:30:39.450Z,5.14
2019-03-20T22:34:04.711Z,5.07
2019-03-20T22:36:42.025Z,5.12
2019-03-20T22:40:30.502Z,5.14
2019-03-20T22:43:30.550Z,5.15
2019-03-20T22:47:07.091Z,5.19
2019-03-20T22:50:33.406Z,5.15
2019-03-20T22:54:28.421Z,5.08
2019-03-20T22:57:28.399Z,5.05
2019-03-20T23:00:01.221Z,5.01
2019-03-20T23:02:49.047Z,4.87
2019-03-20T23:05:21.645Z,4.82
2019-03-20T23:07:54.408Z,4.88
2019-03-20T23:10:27.158Z,4.85
2019-03-20T23:12:59.961Z,4.80
2019-03-20T23:15:32.838Z,4.79
2019-03-20T23:18:06.872Z,4.78
2019-03-20T23:20:39.650Z,4.79
2019-03-20T23:23:12.355Z,4.71
2019-03-20T23:25:45.263Z,4.67
2019-03-20T23:28:18.132Z,4.60
2019-03-20T23:30:50.889Z,4.53
2019-03-20T23:33:23.632Z,4.55
2019-03-20T23:35:56.378Z,4.60
2019-03-20T23:38:29.056Z,4.53
2019-03-20T23:41:02.302Z,4.48
2019-03-20T23:43:35.000Z,4.41
2019-03-20T23:46:07.996Z,4.42
2019-03-20T23:49:01.330Z,4.38
2019-03-20T23:51:34.275Z,4.33
2019-03-20T23:54:06.938Z,4.48
2019-03-20T23:56:40.189Z,4.51
2019-03-20T23:59:12.848Z,4.47
